sensor_id;sensor_type;location;lat;lon;timestamp;pressure;altitude;pressure_sealevel;temperature;humidity
52105;BME280;38103;42.776;23.112;2022-07-29T00:00:11;94165.50;;;17.18;93.76
52105;BME280;38103;42.776;23.112;2022-07-29T00:02:37;94166.50;;;17.38;92.85
52105;BME280;38103;42.776;23.112;2022-07-29T00:05:03;94176.09;;;17.49;92.61
52105;BME280;38103;42.776;23.112;2022-07-29T00:07:29;94163.84;;;17.38;92.66
52105;BME280;38103;42.776;23.112;2022-07-29T00:09:54;94167.03;;;17.40;92.88
52105;BME280;38103;42.776;23.112;2022-07-29T00:12:21;94171.28;;;17.46;92.45
52105;BME280;38103;42.776;23.112;2022-07-29T00:14:47;94160.13;;;17.28;93.16
52105;BME280;38103;42.776;23.112;2022-07-29T00:17:12;94175.00;;;17.50;93.11
52105;BME280;38103;42.776;23.112;2022-07-29T00:19:38;94176.09;;;17.49;92.02
52105;BME280;38103;42.776;23.112;2022-07-29T00:22:03;94184.66;;;17.41;92.06
52105;BME280;38103;42.776;23.112;2022-07-29T00:24:29;94177.22;;;17.33;92.25
52105;BME280;38103;42.776;23.112;2022-07-29T00:26:54;94170.81;;;17.28;92.51
52105;BME280;38103;42.776;23.112;2022-07-29T00:29:19;94170.84;;;17.23;92.75
52105;BME280;38103;42.776;23.112;2022-07-29T00:31:45;94170.31;;;17.11;93.08
52105;BME280;38103;42.776;23.112;2022-07-29T00:34:10;94179.41;;;16.89;94.41
52105;BME280;38103;42.776;23.112;2022-07-29T00:36:54;94173.53;;;16.81;95.29
52105;BME280;38103;42.776;23.112;2022-07-29T00:39:20;94166.06;;;16.62;95.53
52105;BME280;38103;42.776;23.112;2022-07-29T00:41:45;94168.72;;;16.57;96.32
52105;BME280;38103;42.776;23.112;2022-07-29T00:44:10;94170.34;;;16.58;96.33
52105;BME280;38103;42.776;23.112;2022-07-29T00:46:36;94165.00;;;16.58;96.74
52105;BME280;38103;42.776;23.112;2022-07-29T00:49:01;94161.28;;;16.54;96.98
52105;BME280;38103;42.776;23.112;2022-07-29T00:51:27;94158.06;;;16.57;96.53
52105;BME280;38103;42.776;23.112;2022-07-29T00:53:53;94157.53;;;16.60;96.90
52105;BME280;38103;42.776;23.112;2022-07-29T00:56:19;94159.13;;;16.72;96.30
52105;BME280;38103;42.776;23.112;2022-07-29T00:58:46;94146.53;;;16.88;95.44
52105;BME280;38103;42.776;23.112;2022-07-29T01:01:12;94144.97;;;16.87;94.80
52105;BME280;38103;42.776;23.112;2022-07-29T01:03:37;94124.44;;;16.77;94.28
52105;BME280;38103;42.776;23.112;2022-07-29T01:06:03;94138.00;;;16.96;94.04
52105;BME280;38103;42.776;23.112;2022-07-29T01:08:31;94120.91;;;16.92;93.90
52105;BME280;38103;42.776;23.112;2022-07-29T01:10:58;94135.06;;;17.08;93.38
52105;BME280;38103;42.776;23.112;2022-07-29T01:13:25;94140.38;;;17.08;93.03
52105;BME280;38103;42.776;23.112;2022-07-29T01:15:56;94136.34;;;17.11;93.45
52105;BME280;38103;42.776;23.112;2022-07-29T01:18:30;94127.34;;;16.86;93.67
52105;BME280;38103;42.776;23.112;2022-07-29T01:26:58;94125.72;;;17.06;93.86
52105;BME280;38103;42.776;23.112;2022-07-29T01:29:57;94138.78;;;17.18;92.75
52105;BME280;38103;42.776;23.112;2022-07-29T01:32:26;94138.78;;;17.23;92.60
52105;BME280;38103;42.776;23.112;2022-07-29T01:34:54;94134.75;;;17.26;92.38
52105;BME280;38103;42.776;23.112;2022-07-29T01:37:28;94122.22;;;17.11;91.89
52105;BME280;38103;42.776;23.112;2022-07-29T01:39:56;94130.25;;;17.00;92.45
52105;BME280;38103;42.776;23.112;2022-07-29T01:45:10;94128.44;;;16.59;94.82
52105;BME280;38103;42.776;23.112;2022-07-29T01:47:50;94124.44;;;16.67;94.93
52105;BME280;38103;42.776;23.112;2022-07-29T01:50:20;94129.25;;;16.59;95.28
52105;BME280;38103;42.776;23.112;2022-07-29T01:52:58;94128.16;;;16.55;96.00
52105;BME280;38103;42.776;23.112;2022-07-29T01:55:31;94124.44;;;16.51;96.71
52105;BME280;38103;42.776;23.112;2022-07-29T01:57:58;94123.34;;;16.57;97.25
52105;BME280;38103;42.776;23.112;2022-07-29T02:00:25;94120.69;;;16.68;96.56
52105;BME280;38103;42.776;23.112;2022-07-29T02:02:52;94103.88;;;16.72;95.92
52105;BME280;38103;42.776;23.112;2022-07-29T02:05:21;94113.72;;;16.93;95.92
52105;BME280;38103;42.776;23.112;2022-07-29T02:07:49;94089.69;;;16.88;95.16
52105;BME280;38103;42.776;23.112;2022-07-29T02:10:18;94109.91;;;17.09;94.84
52105;BME280;38103;42.776;23.112;2022-07-29T02:12:46;94107.53;;;17.08;94.63
52105;BME280;38103;42.776;23.112;2022-07-29T02:15:13;94110.19;;;17.08;95.74
52105;BME280;38103;42.776;23.112;2022-07-29T02:17:58;94103.03;;;16.98;96.37
52105;BME280;38103;42.776;23.112;2022-07-29T02:20:25;94107.25;;;17.04;96.51
52105;BME280;38103;42.776;23.112;2022-07-29T02:22:52;94105.91;;;17.17;96.43
52105;BME280;38103;42.776;23.112;2022-07-29T02:25:21;94111.22;;;17.28;95.76
52105;BME280;38103;42.776;23.112;2022-07-29T02:27:49;94111.50;;;17.31;95.33
52105;BME280;38103;42.776;23.112;2022-07-29T02:30:15;94109.59;;;17.32;94.65
52105;BME280;38103;42.776;23.112;2022-07-29T02:32:42;94108.22;;;17.40;94.80
52105;BME280;38103;42.776;23.112;2022-07-29T02:35:09;94098.84;;;17.48;94.91
52105;BME280;38103;42.776;23.112;2022-07-29T02:37:36;94090.63;;;17.39;94.49
52105;BME280;38103;42.776;23.112;2022-07-29T02:40:02;94092.78;;;17.37;95.23
52105;BME280;38103;42.776;23.112;2022-07-29T02:42:29;94091.97;;;17.36;95.63
52105;BME280;38103;42.776;23.112;2022-07-29T02:44:56;94097.84;;;17.33;95.38
52105;BME280;38103;42.776;23.112;2022-07-29T02:47:42;94093.28;;;17.44;94.88
52105;BME280;38103;42.776;23.112;2022-07-29T02:50:11;94089.22;;;17.52;95.03
52105;BME280;38103;42.776;23.112;2022-07-29T02:55:13;94093.44;;;17.58;94.52
52105;BME280;38103;42.776;23.112;2022-07-29T02:57:58;94089.16;;;17.62;94.73
52105;BME280;38103;42.776;23.112;2022-07-29T03:00:27;94093.50;;;17.48;94.52
52105;BME280;38103;42.776;23.112;2022-07-29T03:02:55;94096.97;;;17.48;94.67
52105;BME280;38103;42.776;23.112;2022-07-29T03:05:22;94097.22;;;17.57;94.20
52105;BME280;38103;42.776;23.112;2022-07-29T03:08:00;94094.34;;;17.38;94.27
52105;BME280;38103;42.776;23.112;2022-07-29T03:10:26;94091.69;;;17.33;94.90
52105;BME280;38103;42.776;23.112;2022-07-29T03:12:52;94078.34;;;17.33;95.23
52105;BME280;38103;42.776;23.112;2022-07-29T03:15:19;94077.56;;;17.27;94.98
52105;BME280;38103;42.776;23.112;2022-07-29T03:17:46;94095.47;;;17.26;95.95
52105;BME280;38103;42.776;23.112;2022-07-29T03:20:12;94104.50;;;17.41;95.99
52105;BME280;38103;42.776;23.112;2022-07-29T03:22:41;94102.84;;;17.50;95.36
52105;BME280;38103;42.776;23.112;2022-07-29T03:25:17;94103.34;;;17.58;95.06
52105;BME280;38103;42.776;23.112;2022-07-29T03:27:43;94111.91;;;17.60;94.18
52105;BME280;38103;42.776;23.112;2022-07-29T03:30:10;94112.50;;;17.46;94.33
52105;BME280;38103;42.776;23.112;2022-07-29T03:32:36;94107.50;;;17.29;95.19
52105;BME280;38103;42.776;23.112;2022-07-29T03:35:03;94107.50;;;17.29;95.76
52105;BME280;38103;42.776;23.112;2022-07-29T03:37:28;94113.03;;;17.43;95.66
52105;BME280;38103;42.776;23.112;2022-07-29T03:39:56;94118.84;;;17.61;95.38
52105;BME280;38103;42.776;23.112;2022-07-29T03:42:24;94111.59;;;17.67;94.65
52105;BME280;38103;42.776;23.112;2022-07-29T03:44:52;94114.72;;;17.79;93.81
52105;BME280;38103;42.776;23.112;2022-07-29T03:47:23;94115.47;;;17.90;93.44
52105;BME280;38103;42.776;23.112;2022-07-29T03:49:52;94098.31;;;17.96;92.53
52105;BME280;38103;42.776;23.112;2022-07-29T03:52:19;94109.41;;;18.14;91.93
52105;BME280;38103;42.776;23.112;2022-07-29T03:54:46;94072.69;;;17.90;91.43
52105;BME280;38103;42.776;23.112;2022-07-29T03:57:12;94092.47;;;17.89;91.99
52105;BME280;38103;42.776;23.112;2022-07-29T03:59:39;94109.88;;;17.86;93.15
52105;BME280;38103;42.776;23.112;2022-07-29T04:02:08;94109.75;;;17.62;94.14
52105;BME280;38103;42.776;23.112;2022-07-29T04:04:34;94101.56;;;17.37;97.30
52105;BME280;38103;42.776;23.112;2022-07-29T04:07:00;94101.34;;;17.28;98.86
52105;BME280;38103;42.776;23.112;2022-07-29T04:09:26;94101.34;;;17.28;99.51
52105;BME280;38103;42.776;23.112;2022-07-29T04:11:52;93994.66;;;16.81;98.85
52105;BME280;38103;42.776;23.112;2022-07-29T04:14:18;94109.69;;;17.72;97.74
52105;BME280;38103;42.776;23.112;2022-07-29T04:16:43;94111.22;;;17.84;96.97
52105;BME280;38103;42.776;23.112;2022-07-29T04:19:09;94108.72;;;18.03;96.73
52105;BME280;38103;42.776;23.112;2022-07-29T04:21:40;94122.84;;;18.09;96.00
52105;BME280;38103;42.776;23.112;2022-07-29T04:24:07;94119.84;;;18.21;95.27
52105;BME280;38103;42.776;23.112;2022-07-29T04:26:33;94117.38;;;18.30;94.33
52105;BME280;38103;42.776;23.112;2022-07-29T04:28:58;94087.53;;;18.07;94.11
52105;BME280;38103;42.776;23.112;2022-07-29T04:31:24;94131.75;;;18.39;93.50
52105;BME280;38103;42.776;23.112;2022-07-29T04:33:49;94124.81;;;18.38;93.54
52105;BME280;38103;42.776;23.112;2022-07-29T04:36:14;94119.41;;;18.43;93.42
52105;BME280;38103;42.776;23.112;2022-07-29T04:38:40;94121.25;;;18.48;93.85
52105;BME280;38103;42.776;23.112;2022-07-29T04:41:06;94121.53;;;18.47;93.33
52105;BME280;38103;42.776;23.112;2022-07-29T04:43:33;94126.81;;;18.57;93.15
52105;BME280;38103;42.776;23.112;2022-07-29T04:45:58;94126.50;;;18.59;93.72
52105;BME280;38103;42.776;23.112;2022-07-29T04:48:24;94133.19;;;18.61;93.17
52105;BME280;38103;42.776;23.112;2022-07-29T04:50:49;94132.13;;;18.62;93.11
52105;BME280;38103;42.776;23.112;2022-07-29T04:53:14;94131.00;;;18.63;92.70
52105;BME280;38103;42.776;23.112;2022-07-29T04:55:40;94128.38;;;18.58;92.46
52105;BME280;38103;42.776;23.112;2022-07-29T04:58:05;94132.03;;;18.73;92.20
52105;BME280;38103;42.776;23.112;2022-07-29T05:00:30;94134.69;;;18.73;91.94
52105;BME280;38103;42.776;23.112;2022-07-29T05:02:56;94130.47;;;18.67;92.68
52105;BME280;38103;42.776;23.112;2022-07-29T05:05:21;94131.25;;;18.67;92.27
52105;BME280;38103;42.776;23.112;2022-07-29T05:07:46;94135.06;;;18.91;92.06
52105;BME280;38103;42.776;23.112;2022-07-29T05:10:12;94138.06;;;19.14;90.92
52105;BME280;38103;42.776;23.112;2022-07-29T05:12:37;94132.50;;;19.35;89.84
52105;BME280;38103;42.776;23.112;2022-07-29T05:15:03;94139.44;;;19.60;88.36
52105;BME280;38103;42.776;23.112;2022-07-29T05:17:28;94136.06;;;19.93;86.50
52105;BME280;38103;42.776;23.112;2022-07-29T05:19:54;94141.72;;;20.11;84.86
52105;BME280;38103;42.776;23.112;2022-07-29T05:22:20;94116.56;;;20.26;83.75
52105;BME280;38103;42.776;23.112;2022-07-29T05:24:46;94114.84;;;20.50;82.50
52105;BME280;38103;42.776;23.112;2022-07-29T05:27:12;94144.97;;;20.47;83.29
52105;BME280;38103;42.776;23.112;2022-07-29T05:29:38;94144.97;;;21.14;81.98
52105;BME280;38103;42.776;23.112;2022-07-29T05:32:04;94115.38;;;21.42;77.56
52105;BME280;38103;42.776;23.112;2022-07-29T05:34:30;94149.25;;;21.71;78.01
52105;BME280;38103;42.776;23.112;2022-07-29T05:36:56;94146.66;;;21.94;76.54
52105;BME280;38103;42.776;23.112;2022-07-29T05:39:21;94144.44;;;22.10;74.90
52105;BME280;38103;42.776;23.112;2022-07-29T05:41:47;94102.47;;;21.44;75.81
52105;BME280;38103;42.776;23.112;2022-07-29T05:44:12;94132.72;;;21.64;77.15
52105;BME280;38103;42.776;23.112;2022-07-29T05:46:39;94155.38;;;22.14;75.82
52105;BME280;38103;42.776;23.112;2022-07-29T05:49:04;94146.91;;;22.44;74.56
52105;BME280;38103;42.776;23.112;2022-07-29T05:51:32;94121.75;;;22.49;73.05
52105;BME280;38103;42.776;23.112;2022-07-29T05:53:57;94156.16;;;22.52;71.26
52105;BME280;38103;42.776;23.112;2022-07-29T05:56:22;94165.94;;;22.94;71.48
52105;BME280;38103;42.776;23.112;2022-07-29T05:58:48;94109.78;;;22.87;70.90
52105;BME280;38103;42.776;23.112;2022-07-29T06:01:13;94161.06;;;22.96;70.42
52105;BME280;38103;42.776;23.112;2022-07-29T06:03:39;94163.31;;;23.43;69.85
52105;BME280;38103;42.776;23.112;2022-07-29T06:06:06;94158.13;;;23.47;69.04
52105;BME280;38103;42.776;23.112;2022-07-29T06:08:32;94123.88;;;23.57;67.73
52105;BME280;38103;42.776;23.112;2022-07-29T06:10:59;94156.66;;;23.41;67.06
52105;BME280;38103;42.776;23.112;2022-07-29T06:13:24;94148.50;;;23.64;67.63
52105;BME280;38103;42.776;23.112;2022-07-29T06:15:50;94148.75;;;24.12;64.94
52105;BME280;38103;42.776;23.112;2022-07-29T06:18:15;94158.94;;;24.33;63.71
52105;BME280;38103;42.776;23.112;2022-07-29T06:20:41;94162.13;;;24.53;62.44
52105;BME280;38103;42.776;23.112;2022-07-29T06:23:06;94163.13;;;23.63;62.53
52105;BME280;38103;42.776;23.112;2022-07-29T06:25:31;94156.31;;;23.74;62.66
52105;BME280;38103;42.776;23.112;2022-07-29T06:28:01;94159.06;;;24.19;62.26
52105;BME280;38103;42.776;23.112;2022-07-29T06:30:27;94159.56;;;23.53;64.65
52105;BME280;38103;42.776;23.112;2022-07-29T06:32:53;94142.28;;;23.54;62.96
52105;BME280;38103;42.776;23.112;2022-07-29T06:35:20;94155.09;;;23.98;62.83
52105;BME280;38103;42.776;23.112;2022-07-29T06:37:46;94154.72;;;23.73;63.53
52105;BME280;38103;42.776;23.112;2022-07-29T06:40:12;94151.22;;;23.82;64.58
52105;BME280;38103;42.776;23.112;2022-07-29T06:42:55;94156.25;;;23.57;63.91
52105;BME280;38103;42.776;23.112;2022-07-29T06:45:21;94168.59;;;23.17;66.22
52105;BME280;38103;42.776;23.112;2022-07-29T06:47:46;94145.59;;;23.10;66.20
52105;BME280;38103;42.776;23.112;2022-07-29T06:50:11;94160.66;;;22.42;68.45
52105;BME280;38103;42.776;23.112;2022-07-29T06:52:38;94152.06;;;22.77;67.90
52105;BME280;38103;42.776;23.112;2022-07-29T06:55:04;94155.59;;;22.64;69.44
52105;BME280;38103;42.776;23.112;2022-07-29T06:57:30;94140.88;;;23.25;66.27
52105;BME280;38103;42.776;23.112;2022-07-29T06:59:58;94154.59;;;23.79;65.51
52105;BME280;38103;42.776;23.112;2022-07-29T07:02:24;94156.88;;;23.53;64.79
52105;BME280;38103;42.776;23.112;2022-07-29T07:04:49;94162.66;;;22.74;66.30
52105;BME280;38103;42.776;23.112;2022-07-29T07:07:15;94157.13;;;23.02;65.93
52105;BME280;38103;42.776;23.112;2022-07-29T07:09:40;94155.06;;;22.76;66.88
52105;BME280;38103;42.776;23.112;2022-07-29T07:12:06;94120.09;;;22.85;66.58
52105;BME280;38103;42.776;23.112;2022-07-29T07:14:32;94127.97;;;22.81;65.64
52105;BME280;38103;42.776;23.112;2022-07-29T07:16:57;94150.59;;;23.35;66.08
52105;BME280;38103;42.776;23.112;2022-07-29T07:19:25;94163.97;;;23.08;66.39
52105;BME280;38103;42.776;23.112;2022-07-29T07:21:51;94157.53;;;23.18;66.13
52105;BME280;38103;42.776;23.112;2022-07-29T07:24:17;94162.81;;;23.01;64.55
52105;BME280;38103;42.776;23.112;2022-07-29T07:26:42;94152.84;;;23.42;66.02
52105;BME280;38103;42.776;23.112;2022-07-29T07:29:08;94152.22;;;23.86;62.92
52105;BME280;38103;42.776;23.112;2022-07-29T07:31:33;94150.88;;;23.57;65.06
52105;BME280;38103;42.776;23.112;2022-07-29T07:33:58;94144.13;;;23.86;64.08
52105;BME280;38103;42.776;23.112;2022-07-29T07:36:24;94147.66;;;24.31;62.12
52105;BME280;38103;42.776;23.112;2022-07-29T07:38:49;94152.84;;;23.83;62.92
52105;BME280;38103;42.776;23.112;2022-07-29T07:41:15;94148.75;;;23.44;64.26
52105;BME280;38103;42.776;23.112;2022-07-29T07:43:40;94154.38;;;23.66;64.64
52105;BME280;38103;42.776;23.112;2022-07-29T07:46:06;94145.38;;;23.80;64.20
52105;BME280;38103;42.776;23.112;2022-07-29T07:48:32;94117.41;;;23.84;63.36
52105;BME280;38103;42.776;23.112;2022-07-29T07:51:00;94141.72;;;24.02;62.07
52105;BME280;38103;42.776;23.112;2022-07-29T07:53:25;94145.41;;;24.24;61.25
52105;BME280;38103;42.776;23.112;2022-07-29T07:55:51;94154.50;;;24.55;61.32
52105;BME280;38103;42.776;23.112;2022-07-29T07:58:16;94135.88;;;24.62;60.41
52105;BME280;38103;42.776;23.112;2022-07-29T08:00:42;94140.97;;;24.64;60.18
52105;BME280;38103;42.776;23.112;2022-07-29T08:03:08;94149.41;;;24.62;59.83
52105;BME280;38103;42.776;23.112;2022-07-29T08:05:33;94116.22;;;24.26;59.19
52105;BME280;38103;42.776;23.112;2022-07-29T08:07:59;94148.13;;;24.51;59.95
52105;BME280;38103;42.776;23.112;2022-07-29T08:10:24;94150.31;;;24.84;59.02
52105;BME280;38103;42.776;23.112;2022-07-29T08:13:09;94160.50;;;24.87;60.07
52105;BME280;38103;42.776;23.112;2022-07-29T08:15:38;94162.72;;;24.85;58.82
52105;BME280;38103;42.776;23.112;2022-07-29T08:18:04;94132.84;;;24.73;59.14
52105;BME280;38103;42.776;23.112;2022-07-29T08:20:30;94155.06;;;24.87;58.73
52105;BME280;38103;42.776;23.112;2022-07-29T08:22:57;94156.69;;;24.88;59.78
52105;BME280;38103;42.776;23.112;2022-07-29T08:25:22;94146.00;;;25.49;57.71
52105;BME280;38103;42.776;23.112;2022-07-29T08:27:48;94161.44;;;24.92;58.44
52105;BME280;38103;42.776;23.112;2022-07-29T08:30:13;94153.16;;;24.97;57.09
52105;BME280;38103;42.776;23.112;2022-07-29T08:32:39;94140.59;;;24.92;58.30
52105;BME280;38103;42.776;23.112;2022-07-29T08:35:04;94156.13;;;25.22;56.94
52105;BME280;38103;42.776;23.112;2022-07-29T08:37:30;94142.78;;;25.17;57.43
52105;BME280;38103;42.776;23.112;2022-07-29T08:39:55;94148.22;;;25.47;56.32
52105;BME280;38103;42.776;23.112;2022-07-29T08:42:21;94134.78;;;25.60;56.01
52105;BME280;38103;42.776;23.112;2022-07-29T08:44:47;94130.75;;;25.75;56.56
52105;BME280;38103;42.776;23.112;2022-07-29T08:47:17;94136.97;;;25.75;56.88
52105;BME280;38103;42.776;23.112;2022-07-29T08:49:42;94125.09;;;25.89;54.92
52105;BME280;38103;42.776;23.112;2022-07-29T08:52:11;94134.25;;;25.45;57.63
52105;BME280;38103;42.776;23.112;2022-07-29T08:54:43;94130.34;;;25.25;57.78
52105;BME280;38103;42.776;23.112;2022-07-29T08:57:09;94138.47;;;25.16;56.62
52105;BME280;38103;42.776;23.112;2022-07-29T08:59:37;94137.41;;;25.08;57.17
52105;BME280;38103;42.776;23.112;2022-07-29T09:02:10;94121.97;;;25.48;56.35
52105;BME280;38103;42.776;23.112;2022-07-29T09:04:38;94117.25;;;25.96;53.87
52105;BME280;38103;42.776;23.112;2022-07-29T09:07:04;94129.78;;;25.80;53.54
52105;BME280;38103;42.776;23.112;2022-07-29T09:09:30;94122.47;;;26.02;53.01
52105;BME280;38103;42.776;23.112;2022-07-29T09:11:56;94120.88;;;26.00;53.02
52105;BME280;38103;42.776;23.112;2022-07-29T09:14:21;94125.66;;;26.25;52.67
52105;BME280;38103;42.776;23.112;2022-07-29T09:16:52;94113.47;;;26.53;50.50
52105;BME280;38103;42.776;23.112;2022-07-29T09:19:27;94120.41;;;26.41;52.87
52105;BME280;38103;42.776;23.112;2022-07-29T09:21:54;94110.97;;;26.48;50.17
52105;BME280;38103;42.776;23.112;2022-07-29T09:24:47;94119.03;;;26.35;50.84
52105;BME280;38103;42.776;23.112;2022-07-29T09:27:23;94117.59;;;26.59;50.82
52105;BME280;38103;42.776;23.112;2022-07-29T09:30:01;94119.94;;;26.61;49.44
52105;BME280;38103;42.776;23.112;2022-07-29T09:32:27;94115.13;;;26.66;51.56
52105;BME280;38103;42.776;23.112;2022-07-29T09:35:19;94122.94;;;27.15;49.34
52105;BME280;38103;42.776;23.112;2022-07-29T09:37:45;94113.47;;;26.53;50.02
52105;BME280;38103;42.776;23.112;2022-07-29T09:40:13;94098.25;;;26.61;52.09
52105;BME280;38103;42.776;23.112;2022-07-29T09:42:38;94108.44;;;26.64;49.12
52105;BME280;38103;42.776;23.112;2022-07-29T09:45:04;94095.72;;;26.77;48.85
52105;BME280;38103;42.776;23.112;2022-07-29T09:47:47;94072.13;;;26.43;48.98
52105;BME280;38103;42.776;23.112;2022-07-29T09:50:15;94094.53;;;26.65;49.27
52105;BME280;38103;42.776;23.112;2022-07-29T09:52:48;94100.50;;;26.37;48.85
52105;BME280;38103;42.776;23.112;2022-07-29T09:55:15;94093.81;;;26.43;48.32
52105;BME280;38103;42.776;23.112;2022-07-29T09:57:40;94090.53;;;26.29;48.84
52105;BME280;38103;42.776;23.112;2022-07-29T10:00:08;94086.97;;;26.37;48.80
52105;BME280;38103;42.776;23.112;2022-07-29T10:02:35;94093.38;;;26.54;49.04
52105;BME280;38103;42.776;23.112;2022-07-29T10:05:03;94086.38;;;26.53;48.34
52105;BME280;38103;42.776;23.112;2022-07-29T10:07:58;94086.66;;;26.85;47.36
52105;BME280;38103;42.776;23.112;2022-07-29T10:10:31;94082.41;;;26.97;47.50
52105;BME280;38103;42.776;23.112;2022-07-29T10:13:02;94044.25;;;26.68;46.99
52105;BME280;38103;42.776;23.112;2022-07-29T10:15:30;94071.19;;;26.86;46.68
52105;BME280;38103;42.776;23.112;2022-07-29T10:17:57;94070.22;;;27.03;47.08
52105;BME280;38103;42.776;23.112;2022-07-29T10:20:25;94064.59;;;27.21;46.42
52105;BME280;38103;42.776;23.112;2022-07-29T10:22:51;94030.00;;;27.18;45.75
52105;BME280;38103;42.776;23.112;2022-07-29T10:25:17;94049.78;;;27.31;44.42
52105;BME280;38103;42.776;23.112;2022-07-29T10:27:44;94060.75;;;27.47;45.61
52105;BME280;38103;42.776;23.112;2022-07-29T10:30:11;94056.63;;;26.91;45.03
52105;BME280;38103;42.776;23.112;2022-07-29T10:44:02;94047.25;;;27.63;42.76
52105;BME280;38103;42.776;23.112;2022-07-29T10:46:37;94046.41;;;28.00;43.67
52105;BME280;38103;42.776;23.112;2022-07-29T10:49:26;94032.53;;;28.18;42.69
52105;BME280;38103;42.776;23.112;2022-07-29T10:54:48;94029.31;;;28.00;42.19
52105;BME280;38103;42.776;23.112;2022-07-29T10:57:23;94029.16;;;28.09;41.13
52105;BME280;38103;42.776;23.112;2022-07-29T11:07:23;94022.13;;;28.08;42.07
52105;BME280;38103;42.776;23.112;2022-07-29T11:15:09;94023.81;;;28.41;41.05
52105;BME280;38103;42.776;23.112;2022-07-29T11:28:47;94008.59;;;28.69;39.85
52105;BME280;38103;42.776;23.112;2022-07-29T11:31:16;93966.13;;;28.19;39.97
52105;BME280;38103;42.776;23.112;2022-07-29T11:33:42;93998.59;;;28.57;39.86
52105;BME280;38103;42.776;23.112;2022-07-29T11:36:15;94003.50;;;28.67;39.34
52105;BME280;38103;42.776;23.112;2022-07-29T11:38:40;93999.38;;;28.74;39.65
52105;BME280;38103;42.776;23.112;2022-07-29T11:43:54;94000.19;;;28.29;40.61
52105;BME280;38103;42.776;23.112;2022-07-29T11:46:46;94004.16;;;28.32;39.90
52105;BME280;38103;42.776;23.112;2022-07-29T11:49:19;93977.16;;;28.39;38.31
52105;BME280;38103;42.776;23.112;2022-07-29T11:51:50;93992.47;;;28.60;39.10
52105;BME280;38103;42.776;23.112;2022-07-29T11:54:21;93995.53;;;28.75;39.09
52105;BME280;38103;42.776;23.112;2022-07-29T11:56:49;93962.53;;;28.76;38.08
52105;BME280;38103;42.776;23.112;2022-07-29T11:59:15;93980.69;;;28.88;38.60
52105;BME280;38103;42.776;23.112;2022-07-29T12:01:58;93985.41;;;28.92;38.64
52105;BME280;38103;42.776;23.112;2022-07-29T12:04:24;93991.03;;;28.66;37.75
52105;BME280;38103;42.776;23.112;2022-07-29T12:06:52;93992.13;;;28.78;37.45
52105;BME280;38103;42.776;23.112;2022-07-29T12:09:18;93982.53;;;28.84;37.31
52105;BME280;38103;42.776;23.112;2022-07-29T12:11:45;93992.28;;;28.85;39.46
52105;BME280;38103;42.776;23.112;2022-07-29T12:14:33;93976.06;;;28.73;37.58
52105;BME280;38103;42.776;23.112;2022-07-29T12:16:59;93984.00;;;28.98;38.41
52105;BME280;38103;42.776;23.112;2022-07-29T12:19:28;93959.97;;;29.00;37.13
52105;BME280;38103;42.776;23.112;2022-07-29T12:21:54;93977.88;;;29.01;37.25
52105;BME280;38103;42.776;23.112;2022-07-29T12:24:21;93946.47;;;28.87;37.02
52105;BME280;38103;42.776;23.112;2022-07-29T12:26:57;93973.22;;;29.02;36.86
52105;BME280;38103;42.776;23.112;2022-07-29T12:29:23;93970.22;;;29.23;37.52
52105;BME280;38103;42.776;23.112;2022-07-29T12:31:53;93968.84;;;29.13;36.82
52105;BME280;38103;42.776;23.112;2022-07-29T12:34:23;93954.44;;;29.13;36.85
52105;BME280;38103;42.776;23.112;2022-07-29T12:36:51;93960.34;;;29.15;36.84
52105;BME280;38103;42.776;23.112;2022-07-29T12:39:17;93955.91;;;29.26;36.75
52105;BME280;38103;42.776;23.112;2022-07-29T12:41:43;93960.78;;;29.37;36.87
52105;BME280;38103;42.776;23.112;2022-07-29T12:44:09;93960.50;;;29.22;36.03
52105;BME280;38103;42.776;23.112;2022-07-29T12:46:35;93957.94;;;29.13;37.84
52105;BME280;38103;42.776;23.112;2022-07-29T12:49:00;93949.25;;;29.43;38.11
52105;BME280;38103;42.776;23.112;2022-07-29T12:51:33;93955.06;;;29.62;35.55
52105;BME280;38103;42.776;23.112;2022-07-29T12:54:17;93940.31;;;29.63;36.16
52105;BME280;38103;42.776;23.112;2022-07-29T12:56:44;93900.88;;;29.37;36.53
52105;BME280;38103;42.776;23.112;2022-07-29T12:59:16;93939.31;;;29.51;36.04
52105;BME280;38103;42.776;23.112;2022-07-29T13:01:43;93935.44;;;29.52;37.03
52105;BME280;38103;42.776;23.112;2022-07-29T13:04:08;93941.03;;;29.60;36.81
52105;BME280;38103;42.776;23.112;2022-07-29T13:06:44;93934.66;;;29.52;36.76
52105;BME280;38103;42.776;23.112;2022-07-29T13:09:12;93933.00;;;29.67;34.65
52105;BME280;38103;42.776;23.112;2022-07-29T13:11:49;93935.44;;;29.52;35.61
52105;BME280;38103;42.776;23.112;2022-07-29T13:14:34;93930.56;;;29.42;35.30
52105;BME280;38103;42.776;23.112;2022-07-29T13:17:06;93931.41;;;29.46;34.77
52105;BME280;38103;42.776;23.112;2022-07-29T13:19:44;93920.81;;;29.41;35.70
52105;BME280;38103;42.776;23.112;2022-07-29T13:22:12;93918.63;;;29.30;36.13
52105;BME280;38103;42.776;23.112;2022-07-29T13:24:53;93914.00;;;29.31;35.49
52105;BME280;38103;42.776;23.112;2022-07-29T13:27:22;93917.03;;;29.45;36.17
52105;BME280;38103;42.776;23.112;2022-07-29T13:29:48;93853.25;;;29.27;36.77
52105;BME280;38103;42.776;23.112;2022-07-29T13:32:16;93846.22;;;29.26;35.55
52105;BME280;38103;42.776;23.112;2022-07-29T13:34:42;93899.19;;;29.68;34.74
52105;BME280;38103;42.776;23.112;2022-07-29T13:37:07;93879.09;;;29.37;35.38
52105;BME280;38103;42.776;23.112;2022-07-29T13:39:33;93909.63;;;29.46;35.25
52105;BME280;38103;42.776;23.112;2022-07-29T13:41:58;93900.59;;;29.62;35.44
52105;BME280;38103;42.776;23.112;2022-07-29T13:44:24;93905.69;;;29.43;34.98
52105;BME280;38103;42.776;23.112;2022-07-29T13:46:49;93910.19;;;29.36;34.86